Time;durP1;ratioP1;P1;durP2;ratioP2;P2;SDS_P1;SDS_P2;PMS_P1;PMS_P2;Temp;Humidity;BMP_temperature;BMP_pressure;BME280_temperature;BME280_humidity;BME280_pressure;Samples;Min_cycle;Max_cycle;Signal;HPM_P1;HPM_P2
2022/03/31 00:02:16;;;;;;;22.90;10.75;;;;;;;;;;143742;698;46017;-63
2022/03/31 00:04:43;;;;;;;36.45;13.18;;;;;;;;;;143743;582;46014;-63
2022/03/31 00:07:10;;;;;;;31.45;11.93;;;;;;;;;;143743;632;46018;-63
2022/03/31 00:09:37;;;;;;;33.05;11.82;;;;;;;;;;143740;578;46022;-63
2022/03/31 00:12:05;;;;;;;27.75;10.38;;;;;;;;;;143740;569;46018;-63
2022/03/31 00:14:31;;;;;;;24.02;11.52;;;;;;;;;;143745;605;46014;-63
2022/03/31 00:16:59;;;;;;;22.05;11.00;;;;;;;;;;143741;574;47019;-63
2022/03/31 00:19:26;;;;;;;24.20;11.52;;;;;;;;;;143740;580;46023;-63
2022/03/31 00:27:22;;;;;;;35.83;12.63;;;;;;;;;;143740;606;46018;-63
2022/03/31 00:30:25;;;;;;;37.70;13.90;;;;;;;;;;143740;600;46022;-63
2022/03/31 00:32:53;;;;;;;24.30;11.43;;;;;;;;;;143738;648;46019;-64
2022/03/31 00:35:19;;;;;;;26.30;12.27;;;;;;;;;;143743;569;46014;-63
2022/03/31 00:37:47;;;;;;;20.60;11.20;;;;;;;;;;143738;678;47020;-63
2022/03/31 00:40:18;;;;;;;17.62;10.00;;;;;;;;;;143740;590;46022;-63
2022/03/31 00:42:49;;;;;;;30.50;11.88;;;;;;;;;;143740;684;46016;-63
2022/03/31 00:45:32;;;;;;;30.05;13.45;;;;;;;;;;143742;578;46022;-63
2022/03/31 00:47:59;;;;;;;32.85;12.70;;;;;;;;;;143740;573;46020;-63
2022/03/31 00:50:27;;;;;;;31.65;13.80;;;;;;;;;;143739;648;46022;-64
2022/03/31 00:52:55;;;;;;;25.35;13.30;;;;;;;;;;143742;576;46016;-63
2022/03/31 00:55:22;;;;;;;41.17;13.90;;;;;;;;;;143745;598;46014;-64
2022/03/31 00:57:55;;;;;;;30.10;13.52;;;;;;;;;;143740;594;46020;-63
2022/03/31 01:00:22;;;;;;;29.83;13.57;;;;;;;;;;143740;640;46022;-63
2022/03/31 01:02:50;;;;;;;31.42;12.60;;;;;;;;;;143740;570;46019;-63
2022/03/31 01:05:18;;;;;;;30.12;13.88;;;;;;;;;;143743;645;46014;-63
2022/03/31 01:07:45;;;;;;;41.72;15.15;;;;;;;;;;143743;635;46018;-63
2022/03/31 01:10:14;;;;;;;29.87;12.35;;;;;;;;;;143739;572;47012;-63
2022/03/31 01:12:41;;;;;;;40.78;14.00;;;;;;;;;;143740;598;46018;-63
2022/03/31 01:15:19;;;;;;;29.05;12.60;;;;;;;;;;143743;717;46014;-63
2022/03/31 01:17:49;;;;;;;26.98;13.55;;;;;;;;;;143743;608;46019;-64
2022/03/31 01:20:21;;;;;;;29.42;11.93;;;;;;;;;;143740;564;46030;-63
2022/03/31 01:22:50;;;;;;;26.10;11.77;;;;;;;;;;143742;593;46016;-64
2022/03/31 01:25:17;;;;;;;26.55;12.50;;;;;;;;;;143741;570;46014;-63
2022/03/31 01:27:46;;;;;;;23.27;11.52;;;;;;;;;;143742;584;47018;-63
2022/03/31 01:30:18;;;;;;;27.23;12.98;;;;;;;;;;143738;569;46921;-63
2022/03/31 01:32:46;;;;;;;34.35;13.52;;;;;;;;;;143740;588;46019;-63
2022/03/31 01:35:14;;;;;;;31.00;12.07;;;;;;;;;;143743;687;46022;-63
2022/03/31 01:37:42;;;;;;;25.45;11.38;;;;;;;;;;143742;620;46018;-63
2022/03/31 01:40:10;;;;;;;27.77;11.50;;;;;;;;;;143740;658;46023;-63
2022/03/31 01:42:38;;;;;;;28.90;12.77;;;;;;;;;;143742;570;46016;-64
2022/03/31 01:45:07;;;;;;;26.92;13.13;;;;;;;;;;143742;582;46014;-64
2022/03/31 01:47:34;;;;;;;30.02;14.32;;;;;;;;;;143742;579;46019;-64
2022/03/31 01:50:01;;;;;;;22.52;11.77;;;;;;;;;;143741;577;46022;-63
2022/03/31 01:52:29;;;;;;;33.85;11.98;;;;;;;;;;143742;591;46016;-63
2022/03/31 01:54:56;;;;;;;31.65;12.57;;;;;;;;;;143742;569;46014;-63
2022/03/31 01:57:23;;;;;;;30.12;11.27;;;;;;;;;;143742;580;46018;-63
2022/03/31 01:59:51;;;;;;;22.70;12.25;;;;;;;;;;143740;635;46022;-63
2022/03/31 02:02:18;;;;;;;33.72;14.73;;;;;;;;;;143742;578;46016;-63
2022/03/31 02:04:45;;;;;;;22.77;11.48;;;;;;;;;;143742;576;46014;-63
2022/03/31 02:07:11;;;;;;;35.13;13.98;;;;;;;;;;143728;563;46020;-63
2022/03/31 02:09:39;;;;;;;31.05;12.48;;;;;;;;;;143741;605;46023;-63
2022/03/31 02:12:07;;;;;;;48.78;13.98;;;;;;;;;;143742;582;46016;-64
2022/03/31 02:14:37;;;;;;;27.27;11.55;;;;;;;;;;143744;614;46022;-63
2022/03/31 02:17:11;;;;;;;31.25;13.90;;;;;;;;;;143741;574;46019;-63
2022/03/31 02:19:39;;;;;;;31.57;13.00;;;;;;;;;;143740;583;46022;-64
2022/03/31 02:22:06;;;;;;;27.75;12.45;;;;;;;;;;143740;675;46027;-63
2022/03/31 02:24:35;;;;;;;28.25;13.40;;;;;;;;;;143740;576;46022;-64
2022/03/31 02:27:03;;;;;;;36.00;13.07;;;;;;;;;;143742;587;46018;-63
2022/03/31 02:29:30;;;;;;;27.48;13.60;;;;;;;;;;143740;575;46022;-63
2022/03/31 02:31:57;;;;;;;34.67;12.85;;;;;;;;;;143743;573;46013;-63
2022/03/31 02:34:24;;;;;;;28.90;12.63;;;;;;;;;;143743;564;46014;-63
2022/03/31 02:36:51;;;;;;;26.90;13.07;;;;;;;;;;143740;587;46020;-63
2022/03/31 02:39:18;;;;;;;29.08;13.25;;;;;;;;;;143740;679;46013;-63
2022/03/31 02:41:45;;;;;;;36.25;12.27;;;;;;;;;;143742;624;46016;-64
2022/03/31 02:44:12;;;;;;;32.75;14.27;;;;;;;;;;143743;621;46022;-63
2022/03/31 02:46:39;;;;;;;45.40;14.55;;;;;;;;;;143740;732;46020;-64
2022/03/31 02:49:06;;;;;;;37.63;13.18;;;;;;;;;;143741;572;46022;-63
2022/03/31 02:51:33;;;;;;;37.55;14.38;;;;;;;;;;143741;564;46016;-63
2022/03/31 02:56:45;;;;;;;31.48;12.73;;;;;;;;;;143741;586;46018;-63
2022/03/31 02:59:12;;;;;;;32.83;13.05;;;;;;;;;;143740;593;46012;-63
2022/03/31 03:01:39;;;;;;;28.42;11.98;;;;;;;;;;143740;593;46019;-63
2022/03/31 03:04:08;;;;;;;26.02;12.25;;;;;;;;;;143744;575;46014;-63
2022/03/31 03:06:35;;;;;;;31.75;12.57;;;;;;;;;;143744;651;46018;-63
2022/03/31 03:09:01;;;;;;;26.75;11.80;;;;;;;;;;143742;570;46012;-63
2022/03/31 03:11:29;;;;;;;29.30;12.18;;;;;;;;;;143738;570;46018;-63
2022/03/31 03:13:56;;;;;;;37.03;12.95;;;;;;;;;;143744;591;46014;-63
2022/03/31 03:16:25;;;;;;;30.35;12.10;;;;;;;;;;143740;576;46020;-63
2022/03/31 03:18:52;;;;;;;38.20;12.50;;;;;;;;;;143740;578;46012;-63
2022/03/31 03:21:20;;;;;;;33.20;12.27;;;;;;;;;;143743;568;46012;-63
2022/03/31 03:23:48;;;;;;;31.33;13.07;;;;;;;;;;143745;575;46037;-64
2022/03/31 03:26:15;;;;;;;37.00;14.10;;;;;;;;;;143742;617;46018;-63
2022/03/31 03:28:42;;;;;;;32.80;12.35;;;;;;;;;;143740;647;46010;-63
2022/03/31 03:31:09;;;;;;;39.40;13.73;;;;;;;;;;143740;586;46019;-63
2022/03/31 03:33:37;;;;;;;29.23;12.68;;;;;;;;;;143743;584;46012;-64
2022/03/31 03:36:08;;;;;;;32.45;12.00;;;;;;;;;;143743;574;46018;-63
2022/03/31 03:38:35;;;;;;;36.60;13.05;;;;;;;;;;143740;591;46011;-63
2022/03/31 03:41:02;;;;;;;31.60;12.10;;;;;;;;;;143740;621;46018;-63
2022/03/31 03:43:31;;;;;;;36.15;11.80;;;;;;;;;;143743;581;46022;-64
2022/03/31 03:45:58;;;;;;;33.92;12.20;;;;;;;;;;143743;587;46019;-63
2022/03/31 03:48:25;;;;;;;39.92;12.35;;;;;;;;;;143740;577;46010;-63
2022/03/31 03:50:53;;;;;;;36.95;12.50;;;;;;;;;;143742;643;46016;-63
2022/03/31 03:53:20;;;;;;;36.85;12.35;;;;;;;;;;143743;682;46022;-63
2022/03/31 03:55:47;;;;;;;31.83;11.88;;;;;;;;;;143742;608;46018;-64
2022/03/31 03:58:14;;;;;;;39.00;12.60;;;;;;;;;;143740;578;46022;-64
2022/03/31 04:00:42;;;;;;;42.65;12.10;;;;;;;;;;143741;577;46016;-64
2022/03/31 04:03:09;;;;;;;34.22;11.77;;;;;;;;;;143741;566;46023;-64
2022/03/31 04:05:36;;;;;;;34.72;12.55;;;;;;;;;;143744;582;46018;-63
2022/03/31 04:08:03;;;;;;;32.10;12.57;;;;;;;;;;143740;581;46011;-64
2022/03/31 04:10:30;;;;;;;28.75;11.38;;;;;;;;;;143742;648;46016;-63
2022/03/31 04:12:57;;;;;;;35.97;12.70;;;;;;;;;;143743;591;46012;-64
2022/03/31 04:15:25;;;;;;;35.28;11.23;;;;;;;;;;143741;709;47019;-64
2022/03/31 04:17:51;;;;;;;39.60;15.75;;;;;;;;;;143739;586;46920;-64
2022/03/31 04:20:18;;;;;;;30.12;12.68;;;;;;;;;;143743;574;46010;-63
2022/03/31 04:22:45;;;;;;;39.45;13.13;;;;;;;;;;143742;603;46012;-64
2022/03/31 04:25:13;;;;;;;44.47;12.07;;;;;;;;;;143739;634;47018;-63
2022/03/31 04:27:41;;;;;;;39.08;13.27;;;;;;;;;;143740;630;46022;-64
2022/03/31 04:30:10;;;;;;;35.67;12.60;;;;;;;;;;143742;589;46017;-63
2022/03/31 04:32:38;;;;;;;33.80;12.27;;;;;;;;;;143740;586;46012;-63
2022/03/31 04:35:06;;;;;;;40.08;13.20;;;;;;;;;;143741;582;46018;-64
2022/03/31 04:37:34;;;;;;;32.92;12.30;;;;;;;;;;143740;595;46011;-64
2022/03/31 04:40:02;;;;;;;45.35;13.25;;;;;;;;;;143740;572;46909;-63
2022/03/31 04:42:29;;;;;;;34.78;10.35;;;;;;;;;;143740;569;46012;-64
2022/03/31 04:44:56;;;;;;;40.83;12.23;;;;;;;;;;143740;619;46020;-64
2022/03/31 04:47:23;;;;;;;36.75;11.73;;;;;;;;;;143739;575;46022;-63
2022/03/31 04:49:50;;;;;;;40.75;12.68;;;;;;;;;;143740;565;46018;-64
2022/03/31 04:52:17;;;;;;;40.00;13.93;;;;;;;;;;143743;578;46013;-64
2022/03/31 04:54:45;;;;;;;32.90;12.52;;;;;;;;;;143743;569;46018;-63
2022/03/31 04:57:16;;;;;;;45.72;13.85;;;;;;;;;;143740;627;46010;-63
2022/03/31 04:59:44;;;;;;;43.60;12.43;;;;;;;;;;143742;570;46017;-63
2022/03/31 05:02:12;;;;;;;43.42;13.10;;;;;;;;;;143743;569;46014;-63
2022/03/31 05:04:39;;;;;;;46.22;14.07;;;;;;;;;;143741;587;46018;-64
2022/03/31 05:07:06;;;;;;;45.42;14.05;;;;;;;;;;143740;594;46023;-63
2022/03/31 05:09:33;;;;;;;39.55;12.07;;;;;;;;;;143740;585;46018;-64
2022/03/31 05:12:00;;;;;;;39.47;12.18;;;;;;;;;;143742;605;46012;-64
2022/03/31 05:14:27;;;;;;;37.03;12.32;;;;;;;;;;143742;588;46019;-63
2022/03/31 05:16:54;;;;;;;37.70;12.05;;;;;;;;;;143740;573;46022;-63
2022/03/31 05:19:21;;;;;;;30.90;11.98;;;;;;;;;;143742;635;46016;-63
2022/03/31 05:21:49;;;;;;;34.88;10.70;;;;;;;;;;143743;581;46022;-63
2022/03/31 05:24:16;;;;;;;44.38;13.82;;;;;;;;;;143741;600;47018;-64
2022/03/31 05:26:43;;;;;;;51.20;14.13;;;;;;;;;;143739;699;46022;-64
2022/03/31 05:29:10;;;;;;;44.95;11.85;;;;;;;;;;143743;576;46010;-63
2022/03/31 05:31:37;;;;;;;36.38;11.27;;;;;;;;;;143741;587;46012;-64
2022/03/31 05:34:04;;;;;;;34.28;11.77;;;;;;;;;;143743;579;46018;-64
2022/03/31 05:36:31;;;;;;;37.40;12.43;;;;;;;;;;143740;594;46022;-63
2022/03/31 05:38:58;;;;;;;47.90;13.38;;;;;;;;;;143742;569;46016;-63
2022/03/31 05:41:26;;;;;;;34.28;11.38;;;;;;;;;;143742;576;46022;-64
2022/03/31 05:43:53;;;;;;;42.90;12.45;;;;;;;;;;143742;574;46020;-64
2022/03/31 05:46:22;;;;;;;47.05;12.98;;;;;;;;;;143741;564;46023;-64
2022/03/31 05:48:50;;;;;;;42.50;12.30;;;;;;;;;;143743;591;46016;-64
2022/03/31 05:51:17;;;;;;;39.53;12.70;;;;;;;;;;143743;604;46012;-64
2022/03/31 05:53:44;;;;;;;34.88;11.75;;;;;;;;;;143743;624;46018;-64
2022/03/31 05:56:11;;;;;;;43.05;12.85;;;;;;;;;;143741;564;46022;-63
2022/03/31 05:58:38;;;;;;;27.70;10.60;;;;;;;;;;143741;600;46018;-64
2022/03/31 06:01:05;;;;;;;34.33;11.18;;;;;;;;;;143743;606;46013;-63
2022/03/31 06:03:32;;;;;;;34.10;11.88;;;;;;;;;;143741;584;46020;-63
2022/03/31 06:06:00;;;;;;;32.67;11.25;;;;;;;;;;143740;594;46023;-64
2022/03/31 06:08:27;;;;;;;33.05;11.32;;;;;;;;;;143743;632;46016;-64
2022/03/31 06:10:54;;;;;;;40.00;14.27;;;;;;;;;;143745;592;46012;-65
2022/03/31 06:13:21;;;;;;;39.50;11.65;;;;;;;;;;143741;608;46020;-63
2022/03/31 06:15:48;;;;;;;53.03;15.05;;;;;;;;;;143741;569;46023;-64
2022/03/31 06:18:15;;;;;;;42.97;12.40;;;;;;;;;;143741;581;46018;-64
2022/03/31 06:20:42;;;;;;;35.65;10.95;;;;;;;;;;143743;603;46013;-64
2022/03/31 06:23:09;;;;;;;35.47;11.02;;;;;;;;;;143740;600;46021;-64
2022/03/31 06:25:36;;;;;;;35.83;11.52;;;;;;;;;;143740;585;46010;-64
2022/03/31 06:28:04;;;;;;;40.88;11.73;;;;;;;;;;143742;608;46016;-64
2022/03/31 06:30:31;;;;;;;44.50;12.50;;;;;;;;;;143743;582;46012;-64
2022/03/31 06:32:59;;;;;;;39.05;11.93;;;;;;;;;;143740;565;46020;-65
2022/03/31 06:35:26;;;;;;;35.28;11.48;;;;;;;;;;143741;563;46011;-65
2022/03/31 06:37:53;;;;;;;25.37;9.75;;;;;;;;;;143742;571;46016;-64
2022/03/31 06:40:20;;;;;;;33.00;11.30;;;;;;;;;;143744;590;46012;-63
2022/03/31 06:42:48;;;;;;;25.75;10.45;;;;;;;;;;143741;603;46020;-63
2022/03/31 06:45:16;;;;;;;51.30;11.70;;;;;;;;;;143741;581;46023;-64
2022/03/31 06:47:44;;;;;;;45.10;11.95;;;;;;;;;;143742;579;46016;-64
2022/03/31 06:50:13;;;;;;;30.83;10.57;;;;;;;;;;143746;636;46013;-64
2022/03/31 06:52:40;;;;;;;42.80;11.70;;;;;;;;;;143744;586;46019;-64
2022/03/31 06:55:08;;;;;;;24.80;10.43;;;;;;;;;;143741;577;46010;-64
2022/03/31 06:57:35;;;;;;;35.10;12.25;;;;;;;;;;143740;613;46024;-63
2022/03/31 07:00:04;;;;;;;35.53;10.50;;;;;;;;;;143744;589;46012;-64
2022/03/31 07:02:31;;;;;;;36.38;10.95;;;;;;;;;;143743;587;46018;-63
2022/03/31 07:04:59;;;;;;;38.80;11.40;;;;;;;;;;143741;570;46022;-64
2022/03/31 07:07:26;;;;;;;52.22;16.15;;;;;;;;;;143741;604;46019;-64
2022/03/31 07:09:53;;;;;;;45.55;11.30;;;;;;;;;;143746;595;46012;-63
2022/03/31 07:12:20;;;;;;;45.78;12.52;;;;;;;;;;143740;586;47018;-63
2022/03/31 07:14:47;;;;;;;34.83;10.85;;;;;;;;;;143741;617;46023;-63
2022/03/31 07:17:14;;;;;;;50.45;11.07;;;;;;;;;;143741;620;46018;-63
2022/03/31 07:19:41;;;;;;;43.60;11.02;;;;;;;;;;143744;585;46022;-63
2022/03/31 07:22:08;;;;;;;36.55;10.95;;;;;;;;;;143742;596;46019;-64
2022/03/31 07:24:35;;;;;;;37.45;11.00;;;;;;;;;;143741;604;46010;-63
2022/03/31 07:27:02;;;;;;;40.92;11.55;;;;;;;;;;143741;595;46018;-64
2022/03/31 07:29:29;;;;;;;34.28;10.68;;;;;;;;;;143747;619;46012;-63
2022/03/31 07:31:56;;;;;;;32.83;10.90;;;;;;;;;;143746;638;46018;-64
2022/03/31 07:34:24;;;;;;;38.53;12.85;;;;;;;;;;143741;726;46919;-64
2022/03/31 07:36:51;;;;;;;35.83;12.43;;;;;;;;;;143742;605;46019;-64
2022/03/31 07:39:18;;;;;;;42.00;12.68;;;;;;;;;;143745;636;46022;-64
2022/03/31 07:41:45;;;;;;;39.13;12.05;;;;;;;;;;143744;594;46039;-64
2022/03/31 07:44:12;;;;;;;30.73;12.48;;;;;;;;;;143742;592;46011;-64
2022/03/31 07:46:40;;;;;;;44.33;11.02;;;;;;;;;;143742;577;46018;-65
2022/03/31 07:49:07;;;;;;;36.42;10.73;;;;;;;;;;143745;569;46022;-64
2022/03/31 07:51:34;;;;;;;46.00;12.00;;;;;;;;;;143744;596;46019;-64
2022/03/31 07:54:02;;;;;;;31.42;10.20;;;;;;;;;;143742;667;46010;-64
2022/03/31 07:56:29;;;;;;;45.88;10.90;;;;;;;;;;143742;735;46018;-63
2022/03/31 07:58:56;;;;;;;48.60;11.05;;;;;;;;;;143745;570;46012;-64
2022/03/31 08:01:23;;;;;;;37.58;11.48;;;;;;;;;;143742;575;46020;-65
2022/03/31 08:03:52;;;;;;;41.10;11.68;;;;;;;;;;143742;565;46022;-65
2022/03/31 08:06:19;;;;;;;25.85;10.52;;;;;;;;;;143744;640;46016;-64
2022/03/31 08:08:46;;;;;;;39.65;11.35;;;;;;;;;;143744;623;46023;-63
2022/03/31 08:11:14;;;;;;;30.83;9.07;;;;;;;;;;143742;693;46020;-64
2022/03/31 08:13:41;;;;;;;32.05;9.80;;;;;;;;;;143742;565;46011;-65
2022/03/31 08:16:09;;;;;;;40.50;11.00;;;;;;;;;;143742;569;46910;-64
2022/03/31 08:18:36;;;;;;;44.28;11.32;;;;;;;;;;143745;623;46012;-64
2022/03/31 08:21:04;;;;;;;35.40;11.32;;;;;;;;;;143744;647;46019;-63
2022/03/31 08:23:31;;;;;;;49.22;11.57;;;;;;;;;;143742;596;46010;-64
2022/03/31 08:25:57;;;;;;;37.85;10.98;;;;;;;;;;143744;588;46018;-64
2022/03/31 08:28:25;;;;;;;46.40;12.37;;;;;;;;;;143744;589;46013;-64
2022/03/31 08:30:52;;;;;;;40.70;11.98;;;;;;;;;;143742;609;46021;-63
2022/03/31 08:33:19;;;;;;;47.97;13.38;;;;;;;;;;143742;566;46022;-63
2022/03/31 08:35:46;;;;;;;37.40;11.60;;;;;;;;;;143745;569;46016;-63
2022/03/31 08:38:14;;;;;;;46.20;13.02;;;;;;;;;;143744;574;46022;-64
2022/03/31 08:40:42;;;;;;;48.87;13.75;;;;;;;;;;143745;666;46018;-64
2022/03/31 08:43:09;;;;;;;48.10;13.15;;;;;;;;;;143741;727;46022;-65
2022/03/31 08:45:37;;;;;;;43.92;12.63;;;;;;;;;;143742;806;46018;-65
2022/03/31 08:48:04;;;;;;;36.25;12.35;;;;;;;;;;143746;612;46022;-63
2022/03/31 08:50:34;;;;;;;39.88;11.50;;;;;;;;;;143741;609;46020;-65
2022/03/31 08:53:02;;;;;;;42.53;11.05;;;;;;;;;;143741;565;46010;-63
2022/03/31 08:55:29;;;;;;;41.03;12.00;;;;;;;;;;143742;617;46018;-64
2022/03/31 08:57:56;;;;;;;41.90;11.52;;;;;;;;;;143744;581;46022;-65
2022/03/31 09:00:24;;;;;;;34.75;13.07;;;;;;;;;;143742;617;46018;-64
2022/03/31 09:03:09;;;;;;;38.25;12.25;;;;;;;;;;143741;606;46919;-64
2022/03/31 09:05:38;;;;;;;43.80;11.50;;;;;;;;;;143740;567;46019;-64
2022/03/31 09:08:06;;;;;;;51.40;12.90;;;;;;;;;;143745;564;46023;-63
2022/03/31 09:10:37;;;;;;;46.17;11.12;;;;;;;;;;143743;624;47018;-64
2022/03/31 09:13:17;;;;;;;47.88;11.98;;;;;;;;;;143742;634;46023;-64
2022/03/31 09:15:58;;;;;;;43.87;13.13;;;;;;;;;;143744;640;46018;-64
2022/03/31 09:18:27;;;;;;;39.55;11.15;;;;;;;;;;143746;643;46022;-64
2022/03/31 09:20:56;;;;;;;44.65;12.20;;;;;;;;;;143744;602;46019;-64
2022/03/31 09:23:25;;;;;;;34.53;10.15;;;;;;;;;;143742;614;46022;-64
2022/03/31 09:25:53;;;;;;;37.03;10.85;;;;;;;;;;143745;674;46025;-64
2022/03/31 09:28:24;;;;;;;41.92;11.02;;;;;;;;;;143744;583;46010;-64
2022/03/31 09:30:54;;;;;;;47.97;13.45;;;;;;;;;;143743;579;46018;-63
2022/03/31 09:33:45;;;;;;;46.30;12.40;;;;;;;;;;143741;588;46022;-64
2022/03/31 09:36:21;;;;;;;41.95;11.63;;;;;;;;;;143742;629;46019;-63
2022/03/31 09:39:00;;;;;;;57.65;15.05;;;;;;;;;;143743;569;46039;-63
2022/03/31 09:41:29;;;;;;;47.03;13.32;;;;;;;;;;143743;569;46046;-64
2022/03/31 09:43:58;;;;;;;48.70;12.32;;;;;;;;;;143742;628;46021;-64
2022/03/31 09:46:30;;;;;;;43.90;11.38;;;;;;;;;;143744;629;46018;-63
2022/03/31 09:48:58;;;;;;;54.00;12.93;;;;;;;;;;143745;614;46020;-64
2022/03/31 09:51:25;;;;;;;47.28;11.98;;;;;;;;;;143740;643;47045;-65
2022/03/31 09:53:54;;;;;;;50.80;11.63;;;;;;;;;;143743;602;46010;-63
2022/03/31 09:56:24;;;;;;;53.80;14.32;;;;;;;;;;143742;622;46020;-64
2022/03/31 09:58:53;;;;;;;49.78;13.98;;;;;;;;;;143744;583;46012;-63
2022/03/31 10:01:21;;;;;;;51.45;12.20;;;;;;;;;;143741;585;46022;-64
2022/03/31 10:03:49;;;;;;;43.90;14.15;;;;;;;;;;143740;638;46020;-64
2022/03/31 10:06:16;;;;;;;45.72;12.65;;;;;;;;;;143744;604;46018;-63
2022/03/31 10:08:44;;;;;;;41.75;13.07;;;;;;;;;;143745;580;46012;-63
2022/03/31 10:11:12;;;;;;;48.05;12.20;;;;;;;;;;143745;614;46020;-64
2022/03/31 10:14:18;;;;;;;46.97;11.48;;;;;;;;;;143742;618;46011;-64
2022/03/31 10:16:54;;;;;;;52.72;12.85;;;;;;;;;;143744;634;46018;-63
2022/03/31 10:19:31;;;;;;;44.45;11.65;;;;;;;;;;143743;591;46020;-64
2022/03/31 10:22:04;;;;;;;39.00;12.18;;;;;;;;;;143739;569;47023;-63
2022/03/31 10:24:46;;;;;;;42.00;11.00;;;;;;;;;;143743;710;46020;-64
2022/03/31 10:27:33;;;;;;;53.90;11.98;;;;;;;;;;143743;565;46019;-63
2022/03/31 10:30:22;;;;;;;47.05;12.40;;;;;;;;;;143744;592;46012;-62
2022/03/31 10:32:56;;;;;;;59.15;12.07;;;;;;;;;;143740;573;46022;-63
2022/03/31 10:35:28;;;;;;;40.25;10.43;;;;;;;;;;143743;589;46010;-63
2022/03/31 10:37:57;;;;;;;52.55;12.45;;;;;;;;;;143742;760;46020;-65
2022/03/31 10:40:38;;;;;;;56.50;12.60;;;;;;;;;;143745;773;46020;-65
2022/03/31 10:43:06;;;;;;;60.65;13.85;;;;;;;;;;143744;566;46021;-63
2022/03/31 10:45:42;;;;;;;63.17;12.60;;;;;;;;;;143742;602;46020;-64
2022/03/31 10:48:21;;;;;;;56.63;13.32;;;;;;;;;;143746;746;45020;-64
2022/03/31 10:51:01;;;;;;;55.45;12.95;;;;;;;;;;143744;569;46021;-63
2022/03/31 10:53:29;;;;;;;45.20;12.60;;;;;;;;;;143743;859;46022;-63
2022/03/31 10:55:56;;;;;;;40.70;11.90;;;;;;;;;;143741;618;47011;-64
2022/03/31 10:58:30;;;;;;;51.70;11.60;;;;;;;;;;143742;572;46021;-64
2022/03/31 11:01:01;;;;;;;44.67;12.45;;;;;;;;;;143746;600;46020;-63
2022/03/31 11:03:28;;;;;;;38.50;11.40;;;;;;;;;;143745;595;46021;-63
2022/03/31 11:06:01;;;;;;;45.40;12.52;;;;;;;;;;143743;828;46021;-64
2022/03/31 11:08:29;;;;;;;48.92;12.13;;;;;;;;;;143744;579;46018;-63
2022/03/31 11:10:57;;;;;;;61.92;11.50;;;;;;;;;;143744;757;46020;-63
2022/03/31 11:13:42;;;;;;;47.35;9.95;;;;;;;;;;143744;825;46021;-64
2022/03/31 11:16:09;;;;;;;55.12;12.37;;;;;;;;;;143741;651;46020;-64
2022/03/31 11:18:36;;;;;;;43.75;12.48;;;;;;;;;;143744;609;46019;-63
2022/03/31 11:21:04;;;;;;;47.33;12.60;;;;;;;;;;143745;861;46008;-64
2022/03/31 11:23:32;;;;;;;52.20;11.15;;;;;;;;;;143744;745;46020;-64
2022/03/31 11:26:00;;;;;;;51.17;13.20;;;;;;;;;;143742;777;46020;-63
2022/03/31 11:28:31;;;;;;;56.20;11.60;;;;;;;;;;143742;614;46021;-63
2022/03/31 11:31:00;;;;;;;48.92;11.15;;;;;;;;;;143743;581;46012;-63
2022/03/31 11:33:36;;;;;;;48.78;13.70;;;;;;;;;;143745;622;46020;-63
2022/03/31 11:36:03;;;;;;;52.97;11.63;;;;;;;;;;143741;889;46021;-64
2022/03/31 11:38:30;;;;;;;49.80;12.90;;;;;;;;;;143744;646;46018;-63
2022/03/31 11:40:57;;;;;;;53.70;11.90;;;;;;;;;;143746;829;46013;-63
2022/03/31 11:43:25;;;;;;;46.90;13.90;;;;;;;;;;143743;620;46021;-64
2022/03/31 11:45:55;;;;;;;52.58;13.55;;;;;;;;;;143742;564;46020;-63
2022/03/31 11:48:30;;;;;;;55.00;12.75;;;;;;;;;;143745;605;46010;-65
2022/03/31 11:50:59;;;;;;;53.85;13.32;;;;;;;;;;143744;604;46021;-63
2022/03/31 11:53:28;;;;;;;58.08;14.48;;;;;;;;;;143745;726;46020;-64
2022/03/31 11:56:04;;;;;;;55.78;12.10;;;;;;;;;;143741;564;46040;-64
2022/03/31 11:58:42;;;;;;;58.92;12.02;;;;;;;;;;143745;596;46010;-64
2022/03/31 12:01:09;;;;;;;51.53;11.25;;;;;;;;;;143745;852;46012;-63
2022/03/31 12:03:38;;;;;;;47.22;11.60;;;;;;;;;;143745;615;46019;-63
2022/03/31 12:06:06;;;;;;;45.28;11.75;;;;;;;;;;143739;823;47010;-64
2022/03/31 12:08:35;;;;;;;57.88;13.15;;;;;;;;;;143740;591;46018;-63
2022/03/31 12:11:03;;;;;;;43.22;12.98;;;;;;;;;;143742;584;46013;-63
2022/03/31 12:13:30;;;;;;;54.50;13.57;;;;;;;;;;143739;578;46021;-64
2022/03/31 12:16:09;;;;;;;39.58;11.38;;;;;;;;;;143740;599;46022;-63
2022/03/31 12:18:37;;;;;;;39.95;11.23;;;;;;;;;;143742;602;46010;-64
2022/03/31 12:21:06;;;;;;;51.45;11.93;;;;;;;;;;143744;651;46023;-65
2022/03/31 12:23:39;;;;;;;49.60;13.18;;;;;;;;;;143744;809;46018;-64
2022/03/31 12:26:19;;;;;;;50.70;13.02;;;;;;;;;;143740;827;46022;-64
2022/03/31 12:28:47;;;;;;;48.03;13.00;;;;;;;;;;143742;590;46016;-63
2022/03/31 12:31:27;;;;;;;43.42;11.65;;;;;;;;;;143744;564;46012;-63
2022/03/31 12:33:55;;;;;;;57.03;12.63;;;;;;;;;;143741;705;46019;-63
2022/03/31 12:36:32;;;;;;;61.22;12.85;;;;;;;;;;143739;656;46022;-63
2022/03/31 12:39:03;;;;;;;49.55;13.62;;;;;;;;;;143742;775;46016;-63
2022/03/31 12:41:38;;;;;;;50.00;12.98;;;;;;;;;;143743;596;46022;-63
2022/03/31 12:44:16;;;;;;;51.13;12.43;;;;;;;;;;143743;598;46018;-64
2022/03/31 12:46:54;;;;;;;37.08;10.52;;;;;;;;;;143740;564;46022;-64
2022/03/31 12:49:22;;;;;;;39.20;10.27;;;;;;;;;;143740;583;46016;-64
2022/03/31 12:51:55;;;;;;;41.35;10.75;;;;;;;;;;143746;593;46012;-65
2022/03/31 12:54:52;;;;;;;35.75;10.05;;;;;;;;;;143740;624;46020;-65
2022/03/31 12:57:21;;;;;;;45.42;9.77;;;;;;;;;;143740;608;46023;-64
2022/03/31 13:00:12;;;;;;;48.30;11.10;;;;;;;;;;143742;613;46016;-64
2022/03/31 13:02:40;;;;;;;49.50;11.25;;;;;;;;;;143744;674;46013;-64
2022/03/31 13:05:08;;;;;;;43.63;10.93;;;;;;;;;;143742;589;46041;-63
2022/03/31 13:07:35;;;;;;;50.95;11.60;;;;;;;;;;143739;616;46020;-63
2022/03/31 13:10:06;;;;;;;47.15;10.98;;;;;;;;;;143742;612;46019;-64
2022/03/31 13:12:33;;;;;;;47.92;10.23;;;;;;;;;;143744;592;46012;-63
2022/03/31 13:15:01;;;;;;;42.95;10.95;;;;;;;;;;143743;615;46020;-64
2022/03/31 13:17:28;;;;;;;43.75;11.57;;;;;;;;;;143740;583;46010;-64
2022/03/31 13:19:55;;;;;;;51.47;12.48;;;;;;;;;;143741;609;46018;-64
2022/03/31 13:22:25;;;;;;;43.97;12.13;;;;;;;;;;143744;610;46020;-63
2022/03/31 13:24:53;;;;;;;44.80;10.50;;;;;;;;;;143741;700;46021;-63
2022/03/31 13:27:21;;;;;;;41.58;10.70;;;;;;;;;;143740;881;46021;-64
2022/03/31 13:29:52;;;;;;;45.22;11.00;;;;;;;;;;143740;608;46020;-63
2022/03/31 13:32:19;;;;;;;44.42;10.73;;;;;;;;;;143743;619;46020;-63
2022/03/31 13:34:47;;;;;;;52.00;11.88;;;;;;;;;;143739;716;46023;-64
2022/03/31 13:37:23;;;;;;;45.17;11.45;;;;;;;;;;143739;596;46020;-63
2022/03/31 13:39:51;;;;;;;37.38;9.98;;;;;;;;;;143740;631;46027;-65
2022/03/31 13:42:19;;;;;;;58.90;10.20;;;;;;;;;;143742;599;46012;-63
2022/03/31 13:44:47;;;;;;;51.00;12.15;;;;;;;;;;143741;602;46020;-65
2022/03/31 13:47:14;;;;;;;53.92;12.15;;;;;;;;;;143740;603;46011;-65
2022/03/31 13:49:41;;;;;;;46.00;11.95;;;;;;;;;;143742;569;46018;-64
2022/03/31 13:52:10;;;;;;;46.95;10.63;;;;;;;;;;143744;663;46012;-64
2022/03/31 13:54:39;;;;;;;46.20;11.73;;;;;;;;;;143743;706;46021;-65
2022/03/31 14:01:07;;;;;;;48.15;12.23;;;;;;;;;;143739;577;46021;-64
2022/03/31 14:02:39;;;;;;;43.60;10.82;;;;;;;;;;143748;684;46022;-65
2022/03/31 14:05:07;;;;;;;45.75;11.65;;;;;;;;;;143741;706;46020;-64
2022/03/31 14:07:34;;;;;;;46.58;12.13;;;;;;;;;;143740;709;46020;-65
2022/03/31 14:10:02;;;;;;;44.95;9.25;;;;;;;;;;143740;963;46027;-63
2022/03/31 14:12:29;;;;;;;32.70;9.65;;;;;;;;;;143742;566;46021;-65
2022/03/31 14:14:56;;;;;;;40.95;9.77;;;;;;;;;;143742;696;46020;-63
2022/03/31 14:17:23;;;;;;;38.30;10.88;;;;;;;;;;143740;582;46020;-63
2022/03/31 14:19:50;;;;;;;35.95;10.10;;;;;;;;;;143740;610;46020;-63
2022/03/31 14:22:17;;;;;;;35.10;8.93;;;;;;;;;;143744;564;46012;-63
2022/03/31 14:24:44;;;;;;;40.92;10.60;;;;;;;;;;143741;583;46020;-63
2022/03/31 14:27:11;;;;;;;35.67;10.77;;;;;;;;;;143740;619;46021;-64
2022/03/31 14:29:42;;;;;;;36.67;10.50;;;;;;;;;;143739;570;46020;-64
2022/03/31 14:32:10;;;;;;;44.67;11.60;;;;;;;;;;143742;614;46020;-64
2022/03/31 14:34:38;;;;;;;49.60;11.12;;;;;;;;;;143743;616;46021;-64
2022/03/31 14:37:06;;;;;;;36.85;12.05;;;;;;;;;;143740;625;46020;-63
2022/03/31 14:39:33;;;;;;;34.00;10.32;;;;;;;;;;143741;615;46020;-64
2022/03/31 14:42:03;;;;;;;37.30;10.63;;;;;;;;;;143741;681;46021;-64